sensor_id;sensor_type;location;lat;lon;timestamp;pressure;altitude;pressure_sealevel;temperature;humidity
82171;BME280;71755;48.038;14.346;2024-01-10T00:02:17;98260.13;;;-7.60;85.85
82171;BME280;71755;48.038;14.346;2024-01-10T00:04:43;98253.66;;;-7.54;85.88
82171;BME280;71755;48.038;14.346;2024-01-10T00:07:09;98244.34;;;-7.57;85.92
82171;BME280;71755;48.038;14.346;2024-01-10T00:09:35;98246.69;;;-7.53;86.12
82171;BME280;71755;48.038;14.346;2024-01-10T00:12:00;98238.91;;;-7.53;85.87
82171;BME280;71755;48.038;14.346;2024-01-10T00:14:26;98231.94;;;-7.53;85.96
82171;BME280;71755;48.038;14.346;2024-01-10T00:16:51;98225.00;;;-7.52;86.13
82171;BME280;71755;48.038;14.346;2024-01-10T00:19:17;98225.94;;;-7.53;86.15
82171;BME280;71755;48.038;14.346;2024-01-10T00:21:43;98217.09;;;-7.51;85.95
82171;BME280;71755;48.038;14.346;2024-01-10T00:24:08;98231.72;;;-7.50;85.99
82171;BME280;71755;48.038;14.346;2024-01-10T00:26:34;98229.94;;;-7.49;85.79
82171;BME280;71755;48.038;14.346;2024-01-10T00:29:00;98229.94;;;-7.49;86.14
82171;BME280;71755;48.038;14.346;2024-01-10T00:31:26;98233.25;;;-7.47;86.47
82171;BME280;71755;48.038;14.346;2024-01-10T00:33:52;98229.59;;;-7.45;86.34
82171;BME280;71755;48.038;14.346;2024-01-10T00:36:18;98242.56;;;-7.45;86.22
82171;BME280;71755;48.038;14.346;2024-01-10T00:38:43;98235.63;;;-7.44;86.33
82171;BME280;71755;48.038;14.346;2024-01-10T00:41:09;98248.59;;;-7.44;86.36
82171;BME280;71755;48.038;14.346;2024-01-10T00:43:37;98248.59;;;-7.44;86.45
82171;BME280;71755;48.038;14.346;2024-01-10T00:46:03;98246.94;;;-7.45;86.19
82171;BME280;71755;48.038;14.346;2024-01-10T00:48:29;98246.94;;;-7.45;86.38
82171;BME280;71755;48.038;14.346;2024-01-10T00:50:55;98248.50;;;-7.43;86.37
82171;BME280;71755;48.038;14.346;2024-01-10T00:53:20;98253.59;;;-7.41;86.10
82171;BME280;71755;48.038;14.346;2024-01-10T00:55:46;98257.00;;;-7.41;86.09
82171;BME280;71755;48.038;14.346;2024-01-10T00:58:12;98269.16;;;-7.41;86.11
82171;BME280;71755;48.038;14.346;2024-01-10T01:00:37;98268.41;;;-7.43;86.12
82171;BME280;71755;48.038;14.346;2024-01-10T01:03:03;98260.63;;;-7.43;86.18
82171;BME280;71755;48.038;14.346;2024-01-10T01:05:30;98272.78;;;-7.44;86.27
82171;BME280;71755;48.038;14.346;2024-01-10T01:07:56;98264.91;;;-7.42;86.47
82171;BME280;71755;48.038;14.346;2024-01-10T01:10:21;98280.47;;;-7.42;86.48
82171;BME280;71755;48.038;14.346;2024-01-10T01:12:48;98285.78;;;-7.79;85.66
82171;BME280;71755;48.038;14.346;2024-01-10T01:15:13;98282.41;;;-7.92;86.50
82171;BME280;71755;48.038;14.346;2024-01-10T01:17:39;98280.03;;;-7.95;86.28
82171;BME280;71755;48.038;14.346;2024-01-10T01:20:06;98289.19;;;-8.02;86.41
82171;BME280;71755;48.038;14.346;2024-01-10T01:22:32;98280.94;;;-8.07;86.40
82171;BME280;71755;48.038;14.346;2024-01-10T01:24:58;98285.66;;;-8.01;86.34
82171;BME280;71755;48.038;14.346;2024-01-10T01:27:24;98284.69;;;-8.11;87.17
82171;BME280;71755;48.038;14.346;2024-01-10T01:29:50;98299.38;;;-8.72;88.13
82171;BME280;71755;48.038;14.346;2024-01-10T01:32:15;98293.88;;;-8.68;89.13
82171;BME280;71755;48.038;14.346;2024-01-10T01:34:41;98296.25;;;-8.52;88.57
82171;BME280;71755;48.038;14.346;2024-01-10T01:37:07;98281.25;;;-8.36;88.54
82171;BME280;71755;48.038;14.346;2024-01-10T01:39:33;98288.53;;;-8.41;88.27
82171;BME280;71755;48.038;14.346;2024-01-10T01:41:58;98297.31;;;-8.93;89.53
82171;BME280;71755;48.038;14.346;2024-01-10T01:44:24;98296.28;;;-9.16;91.21
82171;BME280;71755;48.038;14.346;2024-01-10T01:46:49;98291.00;;;-9.39;92.63
82171;BME280;71755;48.038;14.346;2024-01-10T01:49:16;98287.69;;;-9.16;92.44
82171;BME280;71755;48.038;14.346;2024-01-10T01:51:42;98288.44;;;-9.27;92.42
82171;BME280;71755;48.038;14.346;2024-01-10T01:54:08;98279.81;;;-9.40;92.33
82171;BME280;71755;48.038;14.346;2024-01-10T01:56:40;98292.13;;;-9.43;92.73
82171;BME280;71755;48.038;14.346;2024-01-10T01:59:08;98286.47;;;-9.23;91.88
82171;BME280;71755;48.038;14.346;2024-01-10T02:01:35;98293.41;;;-9.24;91.71
82171;BME280;71755;48.038;14.346;2024-01-10T02:04:02;98287.59;;;-9.15;91.25
82171;BME280;71755;48.038;14.346;2024-01-10T02:06:30;98288.31;;;-9.12;91.42
82171;BME280;71755;48.038;14.346;2024-01-10T02:08:57;98286.22;;;-8.95;91.05
82171;BME280;71755;48.038;14.346;2024-01-10T02:11:26;98291.41;;;-9.07;91.19
82171;BME280;71755;48.038;14.346;2024-01-10T02:13:52;98296.06;;;-9.00;90.80
82171;BME280;71755;48.038;14.346;2024-01-10T02:16:22;98282.59;;;-9.30;91.52
82171;BME280;71755;48.038;14.346;2024-01-10T02:18:50;98285.22;;;-9.05;90.94
82171;BME280;71755;48.038;14.346;2024-01-10T02:21:23;98282.53;;;-9.16;91.36
82171;BME280;71755;48.038;14.346;2024-01-10T02:23:48;98276.94;;;-9.10;91.26
82171;BME280;71755;48.038;14.346;2024-01-10T02:26:15;98278.47;;;-9.07;90.78
82171;BME280;71755;48.038;14.346;2024-01-10T02:28:41;98293.38;;;-9.11;90.80
82171;BME280;71755;48.038;14.346;2024-01-10T02:31:06;98281.16;;;-9.34;91.77
82171;BME280;71755;48.038;14.346;2024-01-10T02:33:32;98279.09;;;-9.42;92.25
82171;BME280;71755;48.038;14.346;2024-01-10T02:35:58;98271.34;;;-9.42;92.84
82171;BME280;71755;48.038;14.346;2024-01-10T02:38:24;98286.44;;;-9.49;92.83
82171;BME280;71755;48.038;14.346;2024-01-10T02:40:50;98294.19;;;-9.49;92.63
82171;BME280;71755;48.038;14.346;2024-01-10T02:43:15;98272.66;;;-9.36;92.66
82171;BME280;71755;48.038;14.346;2024-01-10T02:45:42;98272.59;;;-9.22;91.99
82171;BME280;71755;48.038;14.346;2024-01-10T02:48:08;98274.53;;;-9.38;92.25
82171;BME280;71755;48.038;14.346;2024-01-10T02:50:33;98271.44;;;-9.43;92.78
82171;BME280;71755;48.038;14.346;2024-01-10T02:52:59;98264.59;;;-9.44;92.97
82171;BME280;71755;48.038;14.346;2024-01-10T02:55:25;98261.28;;;-9.34;92.42
82171;BME280;71755;48.038;14.346;2024-01-10T02:57:50;98267.28;;;-9.33;91.78
82171;BME280;71755;48.038;14.346;2024-01-10T03:00:16;98269.16;;;-9.35;92.08
82171;BME280;71755;48.038;14.346;2024-01-10T03:02:42;98260.78;;;-9.52;92.23
82171;BME280;71755;48.038;14.346;2024-01-10T03:05:08;98269.63;;;-9.68;93.12
82171;BME280;71755;48.038;14.346;2024-01-10T03:07:34;98265.16;;;-9.79;94.04
82171;BME280;71755;48.038;14.346;2024-01-10T03:10:00;98270.84;;;-9.87;94.50
82171;BME280;71755;48.038;14.346;2024-01-10T03:12:26;98275.50;;;-9.79;94.20
82171;BME280;71755;48.038;14.346;2024-01-10T03:14:52;98271.16;;;-9.91;94.40
82171;BME280;71755;48.038;14.346;2024-01-10T03:17:18;98268.38;;;-9.88;94.51
82171;BME280;71755;48.038;14.346;2024-01-10T03:19:43;98265.38;;;-9.69;94.44
82171;BME280;71755;48.038;14.346;2024-01-10T03:22:11;98263.34;;;-9.64;93.81
82171;BME280;71755;48.038;14.346;2024-01-10T03:24:37;98259.00;;;-9.64;93.38
82171;BME280;71755;48.038;14.346;2024-01-10T03:27:05;98257.78;;;-9.58;92.94
82171;BME280;71755;48.038;14.346;2024-01-10T03:29:32;98259.31;;;-9.56;92.52
82171;BME280;71755;48.038;14.346;2024-01-10T03:31:58;98266.94;;;-9.67;92.68
82171;BME280;71755;48.038;14.346;2024-01-10T03:34:24;98256.09;;;-9.72;93.14
82171;BME280;71755;48.038;14.346;2024-01-10T03:36:49;98260.63;;;-9.75;92.91
82171;BME280;71755;48.038;14.346;2024-01-10T03:39:15;98253.59;;;-9.86;93.63
82171;BME280;71755;48.038;14.346;2024-01-10T03:41:41;98264.44;;;-9.81;93.38
82171;BME280;71755;48.038;14.346;2024-01-10T03:44:07;98258.56;;;-9.83;93.30
82171;BME280;71755;48.038;14.346;2024-01-10T03:46:32;98259.59;;;-9.73;93.27
82171;BME280;71755;48.038;14.346;2024-01-10T03:48:59;98253.63;;;-9.61;92.92
82171;BME280;71755;48.038;14.346;2024-01-10T03:51:25;98268.28;;;-9.74;92.49
82171;BME280;71755;48.038;14.346;2024-01-10T03:53:51;98258.25;;;-9.79;92.75
82171;BME280;71755;48.038;14.346;2024-01-10T03:56:19;98262.69;;;-9.68;92.62
82171;BME280;71755;48.038;14.346;2024-01-10T03:58:45;98263.25;;;-9.63;92.12
82171;BME280;71755;48.038;14.346;2024-01-10T04:01:14;98263.66;;;-9.56;91.59
82171;BME280;71755;48.038;14.346;2024-01-10T04:03:40;98267.41;;;-9.48;91.49
82171;BME280;71755;48.038;14.346;2024-01-10T04:06:08;98270.19;;;-9.38;91.29
82171;BME280;71755;48.038;14.346;2024-01-10T04:08:33;98257.06;;;-9.35;91.09
82171;BME280;71755;48.038;14.346;2024-01-10T04:10:59;98255.28;;;-9.34;90.64
82171;BME280;71755;48.038;14.346;2024-01-10T04:13:25;98262.63;;;-9.54;90.78
82171;BME280;71755;48.038;14.346;2024-01-10T04:15:52;98259.75;;;-9.49;90.83
82171;BME280;71755;48.038;14.346;2024-01-10T04:18:18;98253.22;;;-9.42;90.50
82171;BME280;71755;48.038;14.346;2024-01-10T04:20:44;98253.44;;;-9.45;91.14
82171;BME280;71755;48.038;14.346;2024-01-10T04:23:10;98262.84;;;-9.44;91.26
82171;BME280;71755;48.038;14.346;2024-01-10T04:25:35;98254.69;;;-9.51;91.47
82171;BME280;71755;48.038;14.346;2024-01-10T04:28:01;98255.09;;;-9.57;91.42
82171;BME280;71755;48.038;14.346;2024-01-10T04:30:27;98265.84;;;-9.63;91.04
82171;BME280;71755;48.038;14.346;2024-01-10T04:32:53;98258.97;;;-9.77;91.33
82171;BME280;71755;48.038;14.346;2024-01-10T04:35:19;98260.00;;;-9.66;91.22
82171;BME280;71755;48.038;14.346;2024-01-10T04:37:45;98264.03;;;-9.75;91.24
82171;BME280;71755;48.038;14.346;2024-01-10T04:40:11;98267.66;;;-9.78;91.50
82171;BME280;71755;48.038;14.346;2024-01-10T04:42:37;98266.41;;;-9.85;91.96
82171;BME280;71755;48.038;14.346;2024-01-10T04:45:04;98269.31;;;-9.77;92.02
82171;BME280;71755;48.038;14.346;2024-01-10T04:47:30;98286.69;;;-9.79;92.33
82171;BME280;71755;48.038;14.346;2024-01-10T04:49:56;98275.78;;;-9.96;92.24
82171;BME280;71755;48.038;14.346;2024-01-10T04:52:21;98276.91;;;-10.00;92.68
82171;BME280;71755;48.038;14.346;2024-01-10T04:54:47;98273.63;;;-9.90;92.73
82171;BME280;71755;48.038;14.346;2024-01-10T04:57:12;98282.31;;;-9.91;92.36
82171;BME280;71755;48.038;14.346;2024-01-10T04:59:38;98278.78;;;-10.02;92.31
82171;BME280;71755;48.038;14.346;2024-01-10T05:02:04;98288.41;;;-10.19;93.28
82171;BME280;71755;48.038;14.346;2024-01-10T05:04:30;98295.41;;;-10.33;94.65
82171;BME280;71755;48.038;14.346;2024-01-10T05:06:56;98288.19;;;-10.28;94.86
82171;BME280;71755;48.038;14.346;2024-01-10T05:09:22;98294.84;;;-10.24;94.42
82171;BME280;71755;48.038;14.346;2024-01-10T05:11:48;98297.72;;;-10.29;94.14
82171;BME280;71755;48.038;14.346;2024-01-10T05:14:17;98297.63;;;-10.42;94.60
82171;BME280;71755;48.038;14.346;2024-01-10T05:16:47;98290.63;;;-10.39;94.93
82171;BME280;71755;48.038;14.346;2024-01-10T05:19:13;98304.19;;;-10.50;94.56
82171;BME280;71755;48.038;14.346;2024-01-10T05:21:39;98305.03;;;-10.50;94.94
82171;BME280;71755;48.038;14.346;2024-01-10T05:24:06;98303.44;;;-10.38;95.04
82171;BME280;71755;48.038;14.346;2024-01-10T05:26:31;98306.78;;;-10.50;94.84
82171;BME280;71755;48.038;14.346;2024-01-10T05:28:57;98300.13;;;-10.40;94.61
82171;BME280;71755;48.038;14.346;2024-01-10T05:31:24;98311.31;;;-10.39;94.70
82171;BME280;71755;48.038;14.346;2024-01-10T05:33:49;98310.47;;;-10.40;94.50
82171;BME280;71755;48.038;14.346;2024-01-10T05:36:15;98308.03;;;-10.29;94.51
82171;BME280;71755;48.038;14.346;2024-01-10T05:38:41;98315.41;;;-10.23;94.08
82171;BME280;71755;48.038;14.346;2024-01-10T05:41:07;98308.66;;;-10.25;94.12
82171;BME280;71755;48.038;14.346;2024-01-10T05:43:32;98320.97;;;-10.16;93.92
82171;BME280;71755;48.038;14.346;2024-01-10T05:45:59;98319.28;;;-10.03;93.70
82171;BME280;71755;48.038;14.346;2024-01-10T05:48:25;98326.44;;;-9.94;93.48
82171;BME280;71755;48.038;14.346;2024-01-10T05:50:51;98320.78;;;-9.86;93.11
82171;BME280;71755;48.038;14.346;2024-01-10T05:53:17;98330.72;;;-9.80;92.66
82171;BME280;71755;48.038;14.346;2024-01-10T05:55:44;98329.66;;;-9.90;92.51
82171;BME280;71755;48.038;14.346;2024-01-10T05:58:10;98338.78;;;-9.85;92.16
82171;BME280;71755;48.038;14.346;2024-01-10T06:00:37;98328.00;;;-9.91;92.58
82171;BME280;71755;48.038;14.346;2024-01-10T06:03:03;98322.25;;;-9.82;92.30
82171;BME280;71755;48.038;14.346;2024-01-10T06:05:29;98341.47;;;-9.86;92.20
82171;BME280;71755;48.038;14.346;2024-01-10T06:07:57;98335.63;;;-10.02;92.02
82171;BME280;71755;48.038;14.346;2024-01-10T06:10:24;98335.03;;;-10.20;92.57
82171;BME280;71755;48.038;14.346;2024-01-10T06:12:49;98331.41;;;-10.18;92.36
82171;BME280;71755;48.038;14.346;2024-01-10T06:15:15;98344.84;;;-10.25;92.87
82171;BME280;71755;48.038;14.346;2024-01-10T06:17:41;98341.16;;;-10.35;93.25
82171;BME280;71755;48.038;14.346;2024-01-10T06:20:08;98338.59;;;-10.35;93.02
82171;BME280;71755;48.038;14.346;2024-01-10T06:22:34;98347.91;;;-10.47;93.64
82171;BME280;71755;48.038;14.346;2024-01-10T06:25:00;98346.44;;;-10.51;94.12
82171;BME280;71755;48.038;14.346;2024-01-10T06:27:26;98345.69;;;-10.53;94.49
82171;BME280;71755;48.038;14.346;2024-01-10T06:29:52;98343.66;;;-10.48;94.53
82171;BME280;71755;48.038;14.346;2024-01-10T06:32:18;98349.38;;;-10.43;94.02
82171;BME280;71755;48.038;14.346;2024-01-10T06:34:43;98356.38;;;-10.45;94.20
82171;BME280;71755;48.038;14.346;2024-01-10T06:37:09;98360.81;;;-10.33;94.06
82171;BME280;71755;48.038;14.346;2024-01-10T06:39:35;98360.25;;;-10.38;94.09
82171;BME280;71755;48.038;14.346;2024-01-10T06:42:02;98366.34;;;-10.39;94.08
82171;BME280;71755;48.038;14.346;2024-01-10T06:44:31;98370.03;;;-10.29;93.74
82171;BME280;71755;48.038;14.346;2024-01-10T06:46:57;98379.16;;;-10.23;93.56
82171;BME280;71755;48.038;14.346;2024-01-10T06:49:23;98372.22;;;-10.23;93.60
82171;BME280;71755;48.038;14.346;2024-01-10T06:51:49;98382.88;;;-10.15;93.29
82171;BME280;71755;48.038;14.346;2024-01-10T06:54:15;98375.94;;;-10.14;93.08
82171;BME280;71755;48.038;14.346;2024-01-10T06:56:41;98379.72;;;-10.05;92.84
82171;BME280;71755;48.038;14.346;2024-01-10T06:59:07;98374.09;;;-9.98;92.78
82171;BME280;71755;48.038;14.346;2024-01-10T07:01:32;98374.44;;;-9.90;92.41
82171;BME280;71755;48.038;14.346;2024-01-10T07:03:58;98377.25;;;-9.80;92.38
82171;BME280;71755;48.038;14.346;2024-01-10T07:06:24;98369.19;;;-9.75;91.92
82171;BME280;71755;48.038;14.346;2024-01-10T07:08:50;98388.75;;;-9.71;91.82
82171;BME280;71755;48.038;14.346;2024-01-10T07:11:19;98379.88;;;-9.67;91.68
82171;BME280;71755;48.038;14.346;2024-01-10T07:13:45;98381.81;;;-9.71;91.56
82171;BME280;71755;48.038;14.346;2024-01-10T07:16:12;98385.44;;;-9.73;91.70
82171;BME280;71755;48.038;14.346;2024-01-10T07:18:41;98378.72;;;-9.76;91.37
82171;BME280;71755;48.038;14.346;2024-01-10T07:21:09;98383.69;;;-9.73;91.30
82171;BME280;71755;48.038;14.346;2024-01-10T07:23:36;98399.56;;;-9.65;90.94
82171;BME280;71755;48.038;14.346;2024-01-10T07:26:06;98391.34;;;-9.71;90.83
82171;BME280;71755;48.038;14.346;2024-01-10T07:28:32;98391.97;;;-9.68;91.02
82171;BME280;71755;48.038;14.346;2024-01-10T07:31:00;98398.13;;;-9.56;90.78
82171;BME280;71755;48.038;14.346;2024-01-10T07:33:28;98398.75;;;-9.53;90.53
82171;BME280;71755;48.038;14.346;2024-01-10T07:35:57;98409.31;;;-9.56;90.71
82171;BME280;71755;48.038;14.346;2024-01-10T07:38:23;98412.00;;;-9.57;90.71
82171;BME280;71755;48.038;14.346;2024-01-10T07:40:49;98411.28;;;-9.47;90.60
82171;BME280;71755;48.038;14.346;2024-01-10T07:43:15;98416.47;;;-9.47;90.39
82171;BME280;71755;48.038;14.346;2024-01-10T07:45:41;98420.84;;;-9.34;90.09
82171;BME280;71755;48.038;14.346;2024-01-10T07:48:07;98413.09;;;-9.34;89.76
82171;BME280;71755;48.038;14.346;2024-01-10T07:50:32;98423.88;;;-9.28;89.68
82171;BME280;71755;48.038;14.346;2024-01-10T07:52:58;98423.06;;;-9.28;89.54
82171;BME280;71755;48.038;14.346;2024-01-10T07:55:24;98423.59;;;-9.23;89.27
82171;BME280;71755;48.038;14.346;2024-01-10T07:57:50;98427.13;;;-9.11;89.72
82171;BME280;71755;48.038;14.346;2024-01-10T08:00:17;98428.16;;;-9.14;89.10
82171;BME280;71755;48.038;14.346;2024-01-10T08:02:45;98433.84;;;-9.22;89.13
82171;BME280;71755;48.038;14.346;2024-01-10T08:05:11;98436.16;;;-9.31;89.52
82171;BME280;71755;48.038;14.346;2024-01-10T08:07:39;98432.38;;;-9.26;89.75
82171;BME280;71755;48.038;14.346;2024-01-10T08:10:09;98430.31;;;-9.21;89.35
82171;BME280;71755;48.038;14.346;2024-01-10T08:12:37;98432.59;;;-9.29;89.92
82171;BME280;71755;48.038;14.346;2024-01-10T08:15:04;98435.44;;;-9.33;89.98
82171;BME280;71755;48.038;14.346;2024-01-10T08:17:32;98436.72;;;-9.26;90.35
82171;BME280;71755;48.038;14.346;2024-01-10T08:19:59;98435.16;;;-9.29;90.76
82171;BME280;71755;48.038;14.346;2024-01-10T08:22:26;98441.50;;;-9.20;91.00
82171;BME280;71755;48.038;14.346;2024-01-10T08:24:52;98441.19;;;-9.16;90.89
82171;BME280;71755;48.038;14.346;2024-01-10T08:27:18;98441.84;;;-8.99;90.77
82171;BME280;71755;48.038;14.346;2024-01-10T08:29:43;98442.72;;;-8.73;90.16
82171;BME280;71755;48.038;14.346;2024-01-10T08:32:10;98443.13;;;-8.67;89.42
82171;BME280;71755;48.038;14.346;2024-01-10T08:34:37;98447.50;;;-8.55;89.21
82171;BME280;71755;48.038;14.346;2024-01-10T08:37:04;98446.03;;;-8.84;88.98
82171;BME280;71755;48.038;14.346;2024-01-10T08:39:30;98455.75;;;-8.88;89.89
82171;BME280;71755;48.038;14.346;2024-01-10T08:41:59;98460.72;;;-8.85;89.62
82171;BME280;71755;48.038;14.346;2024-01-10T08:44:25;98459.38;;;-8.77;90.12
82171;BME280;71755;48.038;14.346;2024-01-10T08:46:51;98456.69;;;-8.76;90.27
82171;BME280;71755;48.038;14.346;2024-01-10T08:49:18;98457.44;;;-8.61;89.81
82171;BME280;71755;48.038;14.346;2024-01-10T08:51:44;98453.91;;;-8.60;88.78
82171;BME280;71755;48.038;14.346;2024-01-10T08:54:12;98462.81;;;-8.64;89.36
82171;BME280;71755;48.038;14.346;2024-01-10T08:56:45;98458.34;;;-8.62;90.02
82171;BME280;71755;48.038;14.346;2024-01-10T08:59:12;98466.34;;;-8.65;89.76
82171;BME280;71755;48.038;14.346;2024-01-10T09:01:38;98463.78;;;-8.53;89.40
82171;BME280;71755;48.038;14.346;2024-01-10T09:04:05;98464.69;;;-8.41;89.21
82171;BME280;71755;48.038;14.346;2024-01-10T09:06:32;98458.28;;;-8.35;88.36
82171;BME280;71755;48.038;14.346;2024-01-10T09:08:59;98465.13;;;-8.34;88.74
82171;BME280;71755;48.038;14.346;2024-01-10T09:11:25;98464.00;;;-7.94;88.20
82171;BME280;71755;48.038;14.346;2024-01-10T09:13:51;98468.09;;;-7.66;87.43
82171;BME280;71755;48.038;14.346;2024-01-10T09:16:17;98464.06;;;-7.33;86.29
82171;BME280;71755;48.038;14.346;2024-01-10T09:18:46;98468.84;;;-7.16;85.05
82171;BME280;71755;48.038;14.346;2024-01-10T09:21:14;98459.47;;;-7.06;84.78
82171;BME280;71755;48.038;14.346;2024-01-10T09:23:41;98464.13;;;-6.87;84.40
82171;BME280;71755;48.038;14.346;2024-01-10T09:26:07;98463.16;;;-6.51;82.86
82171;BME280;71755;48.038;14.346;2024-01-10T09:28:34;98460.09;;;-6.34;82.09
82171;BME280;71755;48.038;14.346;2024-01-10T09:31:00;98452.81;;;-6.17;81.81
82171;BME280;71755;48.038;14.346;2024-01-10T09:33:25;98453.38;;;-6.03;80.35
82171;BME280;71755;48.038;14.346;2024-01-10T09:35:51;98449.22;;;-5.83;83.06
82171;BME280;71755;48.038;14.346;2024-01-10T09:38:17;98462.97;;;-6.14;81.08
82171;BME280;71755;48.038;14.346;2024-01-10T09:40:43;98450.66;;;-6.46;83.35
82171;BME280;71755;48.038;14.346;2024-01-10T09:43:09;98462.00;;;-6.36;82.63
82171;BME280;71755;48.038;14.346;2024-01-10T09:45:35;98456.03;;;-5.59;87.10
82171;BME280;71755;48.038;14.346;2024-01-10T09:48:06;98456.00;;;-5.37;83.95
82171;BME280;71755;48.038;14.346;2024-01-10T09:50:31;98453.69;;;-5.62;78.38
82171;BME280;71755;48.038;14.346;2024-01-10T09:53:07;98453.09;;;-5.55;81.14
82171;BME280;71755;48.038;14.346;2024-01-10T09:55:37;98446.69;;;-5.62;79.12
82171;BME280;71755;48.038;14.346;2024-01-10T09:58:06;98451.91;;;-5.08;82.34
82171;BME280;71755;48.038;14.346;2024-01-10T10:00:34;98447.25;;;-4.72;82.23
82171;BME280;71755;48.038;14.346;2024-01-10T10:03:08;98452.94;;;-5.42;78.08
82171;BME280;71755;48.038;14.346;2024-01-10T10:05:38;98448.72;;;-5.54;77.13
82171;BME280;71755;48.038;14.346;2024-01-10T10:08:09;98457.06;;;-5.94;78.43
82171;BME280;71755;48.038;14.346;2024-01-10T10:10:35;98458.50;;;-5.90;78.76
82171;BME280;71755;48.038;14.346;2024-01-10T10:13:02;98457.50;;;-5.89;78.50
82171;BME280;71755;48.038;14.346;2024-01-10T10:15:28;98456.66;;;-5.78;77.71
82171;BME280;71755;48.038;14.346;2024-01-10T10:17:54;98443.63;;;-5.67;77.29
82171;BME280;71755;48.038;14.346;2024-01-10T10:20:25;98451.47;;;-5.24;77.55
82171;BME280;71755;48.038;14.346;2024-01-10T10:25:45;98448.50;;;-5.19;75.74
82171;BME280;71755;48.038;14.346;2024-01-10T10:28:11;98449.31;;;-4.87;76.01
82171;BME280;71755;48.038;14.346;2024-01-10T10:30:38;98448.00;;;-4.81;73.26
82171;BME280;71755;48.038;14.346;2024-01-10T10:33:04;98447.00;;;-5.01;73.63
82171;BME280;71755;48.038;14.346;2024-01-10T10:35:33;98438.38;;;-5.01;74.40
82171;BME280;71755;48.038;14.346;2024-01-10T10:37:59;98441.72;;;-4.79;74.35
82171;BME280;71755;48.038;14.346;2024-01-10T10:40:26;98443.75;;;-4.61;74.09
82171;BME280;71755;48.038;14.346;2024-01-10T10:42:55;98433.34;;;-4.31;73.53
82171;BME280;71755;48.038;14.346;2024-01-10T10:45:24;98434.53;;;-4.14;71.79
82171;BME280;71755;48.038;14.346;2024-01-10T10:47:57;98439.34;;;-4.10;72.55
82171;BME280;71755;48.038;14.346;2024-01-10T10:50:26;98443.69;;;-3.99;72.90
82171;BME280;71755;48.038;14.346;2024-01-10T10:52:55;98442.63;;;-4.17;72.08
82171;BME280;71755;48.038;14.346;2024-01-10T10:55:22;98436.72;;;-3.79;72.32
82171;BME280;71755;48.038;14.346;2024-01-10T10:57:49;98430.94;;;-3.83;70.58
82171;BME280;71755;48.038;14.346;2024-01-10T11:00:18;98430.00;;;-3.82;70.65
82171;BME280;71755;48.038;14.346;2024-01-10T11:02:45;98429.59;;;-3.77;70.53
82171;BME280;71755;48.038;14.346;2024-01-10T11:05:12;98419.78;;;-3.54;70.88
82171;BME280;71755;48.038;14.346;2024-01-10T11:07:41;98414.97;;;-3.49;71.20
82171;BME280;71755;48.038;14.346;2024-01-10T11:10:19;98413.72;;;-3.55;70.49
82171;BME280;71755;48.038;14.346;2024-01-10T11:13:00;98414.56;;;-3.44;70.24
82171;BME280;71755;48.038;14.346;2024-01-10T11:15:47;98409.19;;;-3.43;67.89
82171;BME280;71755;48.038;14.346;2024-01-10T11:18:46;98399.59;;;-3.13;68.25
82171;BME280;71755;48.038;14.346;2024-01-10T11:24:08;98400.44;;;-2.94;67.15
82171;BME280;71755;48.038;14.346;2024-01-10T11:26:37;98393.81;;;-2.88;67.15
82171;BME280;71755;48.038;14.346;2024-01-10T11:29:04;98392.63;;;-2.37;65.12
82171;BME280;71755;48.038;14.346;2024-01-10T11:31:32;98384.00;;;-2.57;64.75
82171;BME280;71755;48.038;14.346;2024-01-10T11:34:00;98382.63;;;-2.61;66.36
82171;BME280;71755;48.038;14.346;2024-01-10T11:36:26;98378.13;;;-2.32;65.02
82171;BME280;71755;48.038;14.346;2024-01-10T11:41:31;98384.06;;;-2.30;64.28
82171;BME280;71755;48.038;14.346;2024-01-10T11:47:03;98375.34;;;-1.83;64.70
82171;BME280;71755;48.038;14.346;2024-01-10T11:49:29;98380.16;;;-1.89;64.64
82171;BME280;71755;48.038;14.346;2024-01-10T11:51:58;98366.59;;;-2.02;63.95
82171;BME280;71755;48.038;14.346;2024-01-10T11:54:41;98371.53;;;-1.71;62.88
82171;BME280;71755;48.038;14.346;2024-01-10T11:57:28;98371.97;;;-2.03;64.80
82171;BME280;71755;48.038;14.346;2024-01-10T11:59:55;98368.34;;;-2.30;64.30
82171;BME280;71755;48.038;14.346;2024-01-10T12:02:23;98360.63;;;-2.22;65.97
82171;BME280;71755;48.038;14.346;2024-01-10T12:04:51;98362.88;;;-3.02;66.29
82171;BME280;71755;48.038;14.346;2024-01-10T12:07:18;98357.28;;;-2.61;66.78
82171;BME280;71755;48.038;14.346;2024-01-10T12:09:45;98362.69;;;-2.25;66.92
82171;BME280;71755;48.038;14.346;2024-01-10T12:12:15;98365.13;;;-2.14;65.48
82171;BME280;71755;48.038;14.346;2024-01-10T12:14:42;98364.13;;;-1.76;65.65
82171;BME280;71755;48.038;14.346;2024-01-10T12:17:11;98356.56;;;-1.61;64.49
82171;BME280;71755;48.038;14.346;2024-01-10T12:19:37;98350.09;;;-1.39;63.40
82171;BME280;71755;48.038;14.346;2024-01-10T12:22:04;98344.38;;;-0.99;61.23
82171;BME280;71755;48.038;14.346;2024-01-10T12:24:33;98346.50;;;-1.03;60.67
82171;BME280;71755;48.038;14.346;2024-01-10T12:27:00;98342.38;;;-1.41;62.43
82171;BME280;71755;48.038;14.346;2024-01-10T12:29:26;98341.53;;;-1.59;64.46
82171;BME280;71755;48.038;14.346;2024-01-10T12:31:52;98341.53;;;-1.59;64.41
82171;BME280;71755;48.038;14.346;2024-01-10T12:34:20;98341.59;;;-1.51;64.62
82171;BME280;71755;48.038;14.346;2024-01-10T12:36:47;98340.75;;;-1.42;64.28
82171;BME280;71755;48.038;14.346;2024-01-10T12:39:13;98338.00;;;-1.50;65.59
82171;BME280;71755;48.038;14.346;2024-01-10T12:41:41;98339.34;;;-1.64;65.22
82171;BME280;71755;48.038;14.346;2024-01-10T12:44:07;98335.16;;;-1.57;64.64
82171;BME280;71755;48.038;14.346;2024-01-10T12:46:32;98333.38;;;-1.56;64.64
82171;BME280;71755;48.038;14.346;2024-01-10T12:49:02;98323.38;;;-1.43;65.97
82171;BME280;71755;48.038;14.346;2024-01-10T12:51:34;98323.19;;;-1.59;63.79
82171;BME280;71755;48.038;14.346;2024-01-10T12:54:02;98331.88;;;-1.76;63.48
82171;BME280;71755;48.038;14.346;2024-01-10T12:56:29;98334.34;;;-2.02;64.43
82171;BME280;71755;48.038;14.346;2024-01-10T12:58:56;98327.75;;;-1.79;64.61